Zealand Zaria — 9HA2378 — position and weather

sailwx.info

Track history (hours):
 
Tides and Currents Weather Stations Pressure Air Temp Water Temp Dewpoint Dewpoint Depression Visibility Wind Speed Wind Dir Waves Ship Positions

Zealand Zaria

Last reported at 2017-Oct-19 06:56 UTC. Time now 2017-Oct-20 07:21 UTC.
Position N 38°19' W 009°59'.

Length 157 m; draft 8.8 m.

Type: Cargo ship. MMSI: 248472000.

Date/timePositionNaut miles runAvg speedWind from/ knotsBaromVisibWave heightAir tempDewpointWater temp
2017-Oct-19 06:56N 38°19' W 009°59'511.3
2017-Oct-19 06:30N 38°24' W 010°00'611.3
2017-Oct-19 06:00N 38°29' W 010°02'611.4
2017-Oct-19 05:30N 38°35' W 010°03'611.4
2017-Oct-19 05:00N 38°40' W 010°05'611.2
2017-Oct-19 04:30N 38°46' W 010°06'611.6
2017-Oct-19 04:00N 38°52' W 010°06'611.8
2017-Oct-19 03:30N 38°58' W 010°06'611.3
2017-Oct-19 03:00N 39°03' W 010°06'611.5
2017-Oct-19 02:30N 39°09' W 010°06'611.6
2017-Oct-19 02:00N 39°15' W 010°06'  
2017-Oct-16 02:48N 48°48' W 005°51'3 8.7
2017-Oct-16 02:25N 48°51' W 005°49'3 8.4
2017-Oct-16 02:00N 48°54' W 005°46'6 8.5
2017-Oct-16 01:15N 48°57' W 005°38'6 8.5
2017-Oct-16 00:30N 49°00' W 005°29'5 8.9
2017-Oct-15 23:58N 49°02' W 005°23'7 9.4
2017-Oct-15 23:12N 49°06' W 005°13'2 9.8
2017-Oct-15 22:58N 49°07' W 005°10'1210.0
2017-Oct-15 21:47N 49°13' W 004°55'910.7
2017-Oct-15 20:58N 49°17' W 004°43'510.8
2017-Oct-15 20:30N 49°20' W 004°36'611.1
2017-Oct-15 20:00N 49°23' W 004°29'611.2
2017-Oct-15 19:30N 49°25' W 004°21'2910.6
2017-Oct-15 16:44N 49°41' W 003°43'3 9.6
2017-Oct-15 16:26N 49°42' W 003°39'4 9.6
2017-Oct-15 16:00N 49°44' W 003°33'5 9.6
2017-Oct-15 15:30N 49°46' W 003°27'5 9.6
2017-Oct-15 15:00N 49°49' W 003°20'10 9.6
2017-Oct-15 14:00N 49°53' W 003°08'510.0
2017-Oct-15 13:30N 49°56' W 003°01'510.3
2017-Oct-15 12:59N 49°58' W 002°53'3711.9
2017-Oct-15 09:56N 50°09' W 001°59'612.8
2017-Oct-15 09:28N 50°11' W 001°50'1112.3
2017-Oct-15 08:34N 50°14' W 001°33'411.7
2017-Oct-15 08:12N 50°15' W 001°27'811.0
2017-Oct-15 07:31N 50°17' W 001°16'26 9.3
2017-Oct-15 04:46N 50°24' W 000°38'4 8.9
2017-Oct-15 04:22N 50°25' W 000°32'4 9.1
2017-Oct-15 03:56N 50°26' W 000°26'4 9.7
2017-Oct-15 03:30N 50°28' W 000°20'5 9.9
2017-Oct-15 03:00N 50°29' W 000°12'510.5
2017-Oct-15 02:30N 50°31' W 000°05'510.9
2017-Oct-15 02:00N 50°32' E 000°04'611.4
2017-Oct-15 01:30N 50°34' E 000°12'611.8
2017-Oct-15 01:00N 50°35' E 000°21'612.2
2017-Oct-15 00:30N 50°37' E 000°30'612.3
2017-Oct-15 00:00N 50°40' E 000°39'612.2
2017-Oct-14 23:30N 50°43' E 000°47'612.0
2017-Oct-14 23:00N 50°47' E 000°55'611.7
2017-Oct-14 22:28N 50°51' E 001°03'511.3
2017-Oct-14 22:00N 50°54' E 001°09'610.9
2017-Oct-14 21:30N 50°58' E 001°15'510.4
2017-Oct-14 20:59N 51°01' E 001°22'5 9.9
2017-Oct-14 20:30N 51°04' E 001°28'5 9.8
2017-Oct-14 20:00N 51°07' E 001°34'5 9.8
2017-Oct-14 19:30N 51°10' E 001°40'5 9.8
2017-Oct-14 19:00N 51°14' E 001°46'510.4
2017-Oct-14 18:30N 51°18' E 001°50'510.9
2017-Oct-14 18:00N 51°23' E 001°54'611.2
2017-Oct-14 17:30N 51°28' E 001°59'611.7
2017-Oct-14 17:00N 51°32' E 002°05'611.8
2017-Oct-14 16:30N 51°36' E 002°11'712.0
2017-Oct-14 15:57N 51°41' E 002°18'612.1
2017-Oct-14 15:26N 51°46' E 002°25'612.0
2017-Oct-14 14:55N 51°51' E 002°31'67 9.6
2017-Oct-14 07:56N 52°55' E 001°58'4 9.6
2017-Oct-14 07:30N 52°57' E 001°52'5 9.8
2017-Oct-14 07:00N 52°60' E 001°45'510.2
2017-Oct-14 06:30N 53°02' E 001°38'610.4
2017-Oct-14 05:57N 53°06' E 001°30'6510.1
2017-Oct-13 23:31N 53°37' W 000°06'0 9.7
2017-Oct-13 23:30N 53°37' W 000°06'3 6.6
2017-Oct-13 22:59N 53°38' W 000°11'0 0.3
2017-Oct-13 22:30N 53°38' W 000°11'0 0.0
2017-Oct-12 10:58N 53°38' W 000°12'0 0.0
2017-Oct-12 05:25N 53°38' W 000°12'  
2017-Oct-09 19:22N 53°38' W 000°12'  
Track history (hours):
 
Tides and Currents Weather Stations Pressure Air Temp Water Temp Dewpoint Dewpoint Depression Visibility Wind Speed Wind Dir Waves Ship Positions

Zealand Zaria

Last reported at 2017-Oct-19 06:56 UTC. Time now 2017-Oct-20 07:21 UTC.
Position N 38°19' W 009°59'.

Length 157 m; draft 8.8 m.

Type: Cargo ship. MMSI: 248472000.

Date/timePositionNaut miles runAvg speedWind from/ knotsBaromVisibWave heightAir tempDewpointWater temp
2017-Oct-19 06:56N 38°19' W 009°59'511.3
2017-Oct-19 06:30N 38°24' W 010°00'611.3
2017-Oct-19 06:00N 38°29' W 010°02'611.4
2017-Oct-19 05:30N 38°35' W 010°03'611.4
2017-Oct-19 05:00N 38°40' W 010°05'611.2
2017-Oct-19 04:30N 38°46' W 010°06'611.6
2017-Oct-19 04:00N 38°52' W 010°06'611.8
2017-Oct-19 03:30N 38°58' W 010°06'611.3
2017-Oct-19 03:00N 39°03' W 010°06'611.5
2017-Oct-19 02:30N 39°09' W 010°06'611.6
2017-Oct-19 02:00N 39°15' W 010°06'  
2017-Oct-16 02:48N 48°48' W 005°51'3 8.7
2017-Oct-16 02:25N 48°51' W 005°49'3 8.4
2017-Oct-16 02:00N 48°54' W 005°46'6 8.5
2017-Oct-16 01:15N 48°57' W 005°38'6 8.5
2017-Oct-16 00:30N 49°00' W 005°29'5 8.9
2017-Oct-15 23:58N 49°02' W 005°23'7 9.4
2017-Oct-15 23:12N 49°06' W 005°13'2 9.8
2017-Oct-15 22:58N 49°07' W 005°10'1210.0
2017-Oct-15 21:47N 49°13' W 004°55'910.7
2017-Oct-15 20:58N 49°17' W 004°43'510.8
2017-Oct-15 20:30N 49°20' W 004°36'611.1
2017-Oct-15 20:00N 49°23' W 004°29'611.2
2017-Oct-15 19:30N 49°25' W 004°21'2910.6
2017-Oct-15 16:44N 49°41' W 003°43'3 9.6
2017-Oct-15 16:26N 49°42' W 003°39'4 9.6
2017-Oct-15 16:00N 49°44' W 003°33'5 9.6
2017-Oct-15 15:30N 49°46' W 003°27'5 9.6
2017-Oct-15 15:00N 49°49' W 003°20'10 9.6
2017-Oct-15 14:00N 49°53' W 003°08'510.0
2017-Oct-15 13:30N 49°56' W 003°01'510.3
2017-Oct-15 12:59N 49°58' W 002°53'3711.9
2017-Oct-15 09:56N 50°09' W 001°59'612.8
2017-Oct-15 09:28N 50°11' W 001°50'1112.3
2017-Oct-15 08:34N 50°14' W 001°33'411.7
2017-Oct-15 08:12N 50°15' W 001°27'811.0
2017-Oct-15 07:31N 50°17' W 001°16'26 9.3
2017-Oct-15 04:46N 50°24' W 000°38'4 8.9
2017-Oct-15 04:22N 50°25' W 000°32'4 9.1
2017-Oct-15 03:56N 50°26' W 000°26'4 9.7
2017-Oct-15 03:30N 50°28' W 000°20'5 9.9
2017-Oct-15 03:00N 50°29' W 000°12'510.5
2017-Oct-15 02:30N 50°31' W 000°05'510.9
2017-Oct-15 02:00N 50°32' E 000°04'611.4
2017-Oct-15 01:30N 50°34' E 000°12'611.8
2017-Oct-15 01:00N 50°35' E 000°21'612.2
2017-Oct-15 00:30N 50°37' E 000°30'612.3
2017-Oct-15 00:00N 50°40' E 000°39'612.2
2017-Oct-14 23:30N 50°43' E 000°47'612.0
2017-Oct-14 23:00N 50°47' E 000°55'611.7
2017-Oct-14 22:28N 50°51' E 001°03'511.3
2017-Oct-14 22:00N 50°54' E 001°09'610.9
2017-Oct-14 21:30N 50°58' E 001°15'510.4
2017-Oct-14 20:59N 51°01' E 001°22'5 9.9
2017-Oct-14 20:30N 51°04' E 001°28'5 9.8
2017-Oct-14 20:00N 51°07' E 001°34'5 9.8
2017-Oct-14 19:30N 51°10' E 001°40'5 9.8
2017-Oct-14 19:00N 51°14' E 001°46'510.4
2017-Oct-14 18:30N 51°18' E 001°50'510.9
2017-Oct-14 18:00N 51°23' E 001°54'611.2
2017-Oct-14 17:30N 51°28' E 001°59'611.7
2017-Oct-14 17:00N 51°32' E 002°05'611.8
2017-Oct-14 16:30N 51°36' E 002°11'712.0
2017-Oct-14 15:57N 51°41' E 002°18'612.1
2017-Oct-14 15:26N 51°46' E 002°25'612.0
2017-Oct-14 14:55N 51°51' E 002°31'67 9.6
2017-Oct-14 07:56N 52°55' E 001°58'4 9.6
2017-Oct-14 07:30N 52°57' E 001°52'5 9.8
2017-Oct-14 07:00N 52°60' E 001°45'510.2
2017-Oct-14 06:30N 53°02' E 001°38'610.4
2017-Oct-14 05:57N 53°06' E 001°30'6510.1
2017-Oct-13 23:31N 53°37' W 000°06'0 9.7
2017-Oct-13 23:30N 53°37' W 000°06'3 6.6
2017-Oct-13 22:59N 53°38' W 000°11'0 0.3
2017-Oct-13 22:30N 53°38' W 000°11'0 0.0
2017-Oct-12 10:58N 53°38' W 000°12'0 0.0
2017-Oct-12 05:25N 53°38' W 000°12'  
2017-Oct-09 19:22N 53°38' W 000°12'  

Dump ship's entire track history